sensor_id;sensor_type;location;lat;lon;timestamp;temperature;humidity
10905;DHT22;5505;51.450;9.254;2024-03-02T00:02:06;6.10;99.90
10905;DHT22;5505;51.450;9.254;2024-03-02T00:04:53;6.10;99.90
10905;DHT22;5505;51.450;9.254;2024-03-02T00:07:41;6.10;99.90
10905;DHT22;5505;51.450;9.254;2024-03-02T00:10:35;6.10;99.90
10905;DHT22;5505;51.450;9.254;2024-03-02T00:13:25;6.20;99.90
10905;DHT22;5505;51.450;9.254;2024-03-02T00:16:13;6.20;99.90
10905;DHT22;5505;51.450;9.254;2024-03-02T00:19:02;6.00;99.90
10905;DHT22;5505;51.450;9.254;2024-03-02T00:21:51;8.30;99.90
10905;DHT22;5505;51.450;9.254;2024-03-02T00:24:39;6.20;99.90
10905;DHT22;5505;51.450;9.254;2024-03-02T00:27:26;6.30;99.90
10905;DHT22;5505;51.450;9.254;2024-03-02T00:30:35;6.20;99.90
10905;DHT22;5505;51.450;9.254;2024-03-02T00:33:28;6.30;99.90
10905;DHT22;5505;51.450;9.254;2024-03-02T00:36:22;6.30;99.90
10905;DHT22;5505;51.450;9.254;2024-03-02T00:39:12;7.20;99.90
10905;DHT22;5505;51.450;9.254;2024-03-02T00:41:59;6.30;99.90
10905;DHT22;5505;51.450;9.254;2024-03-02T00:44:46;6.30;99.90
10905;DHT22;5505;51.450;9.254;2024-03-02T00:47:37;6.30;99.90
10905;DHT22;5505;51.450;9.254;2024-03-02T00:50:26;6.30;99.90
10905;DHT22;5505;51.450;9.254;2024-03-02T00:53:12;6.20;99.90
10905;DHT22;5505;51.450;9.254;2024-03-02T00:56:01;6.20;99.90
10905;DHT22;5505;51.450;9.254;2024-03-02T00:58:48;7.20;99.90
10905;DHT22;5505;51.450;9.254;2024-03-02T01:01:35;6.30;99.90
10905;DHT22;5505;51.450;9.254;2024-03-02T01:04:22;6.30;99.90
10905;DHT22;5505;51.450;9.254;2024-03-02T01:07:11;6.30;99.90
10905;DHT22;5505;51.450;9.254;2024-03-02T01:09:58;6.30;99.90
10905;DHT22;5505;51.450;9.254;2024-03-02T01:12:45;6.30;99.90
10905;DHT22;5505;51.450;9.254;2024-03-02T01:15:32;6.20;99.90
10905;DHT22;5505;51.450;9.254;2024-03-02T01:18:19;6.20;99.90
10905;DHT22;5505;51.450;9.254;2024-03-02T01:21:07;6.10;99.90
10905;DHT22;5505;51.450;9.254;2024-03-02T01:23:56;6.20;99.90
10905;DHT22;5505;51.450;9.254;2024-03-02T01:26:42;6.10;99.90
10905;DHT22;5505;51.450;9.254;2024-03-02T01:29:29;6.10;99.90
10905;DHT22;5505;51.450;9.254;2024-03-02T01:32:16;6.20;99.90
10905;DHT22;5505;51.450;9.254;2024-03-02T01:35:03;6.10;99.90
10905;DHT22;5505;51.450;9.254;2024-03-02T01:37:50;6.00;99.90
10905;DHT22;5505;51.450;9.254;2024-03-02T01:40:38;6.00;99.90
10905;DHT22;5505;51.450;9.254;2024-03-02T01:43:25;6.00;99.90
10905;DHT22;5505;51.450;9.254;2024-03-02T01:46:13;5.90;99.90
10905;DHT22;5505;51.450;9.254;2024-03-02T01:49:00;5.90;99.90
10905;DHT22;5505;51.450;9.254;2024-03-02T01:51:46;6.00;99.90
10905;DHT22;5505;51.450;9.254;2024-03-02T01:54:33;5.90;99.90
10905;DHT22;5505;51.450;9.254;2024-03-02T01:57:24;5.90;99.90
10905;DHT22;5505;51.450;9.254;2024-03-02T02:00:11;5.90;99.90
10905;DHT22;5505;51.450;9.254;2024-03-02T02:02:58;5.90;99.90
10905;DHT22;5505;51.450;9.254;2024-03-02T02:05:45;5.90;99.90
10905;DHT22;5505;51.450;9.254;2024-03-02T02:08:33;5.90;99.90
10905;DHT22;5505;51.450;9.254;2024-03-02T02:11:20;5.90;99.90
10905;DHT22;5505;51.450;9.254;2024-03-02T02:14:08;5.90;99.90
10905;DHT22;5505;51.450;9.254;2024-03-02T02:16:55;5.90;99.90
10905;DHT22;5505;51.450;9.254;2024-03-02T02:19:42;5.80;99.90
10905;DHT22;5505;51.450;9.254;2024-03-02T02:22:31;5.70;99.90
10905;DHT22;5505;51.450;9.254;2024-03-02T02:25:17;5.70;99.90
10905;DHT22;5505;51.450;9.254;2024-03-02T02:28:04;5.70;99.90
10905;DHT22;5505;51.450;9.254;2024-03-02T02:30:51;5.60;99.90
10905;DHT22;5505;51.450;9.254;2024-03-02T02:33:39;5.60;99.90
10905;DHT22;5505;51.450;9.254;2024-03-02T02:36:26;5.50;99.90
10905;DHT22;5505;51.450;9.254;2024-03-02T02:39:16;5.50;99.90
10905;DHT22;5505;51.450;9.254;2024-03-02T02:42:05;5.40;99.90
10905;DHT22;5505;51.450;9.254;2024-03-02T02:44:52;5.40;99.90
10905;DHT22;5505;51.450;9.254;2024-03-02T02:47:40;5.40;99.90
10905;DHT22;5505;51.450;9.254;2024-03-02T02:50:27;5.40;99.90
10905;DHT22;5505;51.450;9.254;2024-03-02T02:53:13;6.40;99.90
10905;DHT22;5505;51.450;9.254;2024-03-02T02:56:02;5.40;99.90
10905;DHT22;5505;51.450;9.254;2024-03-02T02:58:49;5.40;99.90
10905;DHT22;5505;51.450;9.254;2024-03-02T03:01:35;6.90;99.90
10905;DHT22;5505;51.450;9.254;2024-03-02T03:04:22;5.30;99.90
10905;DHT22;5505;51.450;9.254;2024-03-02T03:07:09;5.40;99.90
10905;DHT22;5505;51.450;9.254;2024-03-02T03:09:56;5.30;99.90
10905;DHT22;5505;51.450;9.254;2024-03-02T03:12:44;5.30;99.90
10905;DHT22;5505;51.450;9.254;2024-03-02T03:15:31;5.30;99.90
10905;DHT22;5505;51.450;9.254;2024-03-02T03:18:18;5.30;99.90
10905;DHT22;5505;51.450;9.254;2024-03-02T03:21:05;5.20;99.90
10905;DHT22;5505;51.450;9.254;2024-03-02T03:23:52;5.20;99.90
10905;DHT22;5505;51.450;9.254;2024-03-02T03:26:38;5.20;99.90
10905;DHT22;5505;51.450;9.254;2024-03-02T03:29:27;5.20;99.90
10905;DHT22;5505;51.450;9.254;2024-03-02T03:32:13;5.10;99.90
10905;DHT22;5505;51.450;9.254;2024-03-02T03:35:00;5.00;99.90
10905;DHT22;5505;51.450;9.254;2024-03-02T03:37:47;4.90;99.90
10905;DHT22;5505;51.450;9.254;2024-03-02T03:40:36;5.00;99.90
10905;DHT22;5505;51.450;9.254;2024-03-02T03:43:23;4.90;99.90
10905;DHT22;5505;51.450;9.254;2024-03-02T03:46:12;4.90;99.90
10905;DHT22;5505;51.450;9.254;2024-03-02T03:48:59;5.00;99.90
10905;DHT22;5505;51.450;9.254;2024-03-02T03:51:46;5.00;99.90
10905;DHT22;5505;51.450;9.254;2024-03-02T03:54:32;5.00;99.90
10905;DHT22;5505;51.450;9.254;2024-03-02T03:57:19;4.90;99.90
10905;DHT22;5505;51.450;9.254;2024-03-02T04:00:07;4.90;99.90
10905;DHT22;5505;51.450;9.254;2024-03-02T04:02:57;4.90;99.90
10905;DHT22;5505;51.450;9.254;2024-03-02T04:05:43;4.80;99.90
10905;DHT22;5505;51.450;9.254;2024-03-02T04:08:30;4.50;99.90
10905;DHT22;5505;51.450;9.254;2024-03-02T04:11:17;4.50;99.90
10905;DHT22;5505;51.450;9.254;2024-03-02T04:14:04;4.40;99.90
10905;DHT22;5505;51.450;9.254;2024-03-02T04:16:51;4.40;99.90
10905;DHT22;5505;51.450;9.254;2024-03-02T04:19:39;4.30;99.90
10905;DHT22;5505;51.450;9.254;2024-03-02T04:22:26;4.20;99.90
10905;DHT22;5505;51.450;9.254;2024-03-02T04:25:13;4.70;99.90
10905;DHT22;5505;51.450;9.254;2024-03-02T04:28:00;4.00;99.90
10905;DHT22;5505;51.450;9.254;2024-03-02T04:30:47;4.00;99.90
10905;DHT22;5505;51.450;9.254;2024-03-02T04:33:34;4.00;99.90
10905;DHT22;5505;51.450;9.254;2024-03-02T04:36:22;4.00;99.90
10905;DHT22;5505;51.450;9.254;2024-03-02T04:39:09;5.60;99.90
10905;DHT22;5505;51.450;9.254;2024-03-02T04:41:57;3.90;99.90
10905;DHT22;5505;51.450;9.254;2024-03-02T04:44:44;3.90;99.90
10905;DHT22;5505;51.450;9.254;2024-03-02T04:47:31;5.50;99.90
10905;DHT22;5505;51.450;9.254;2024-03-02T04:50:18;3.90;99.90
10905;DHT22;5505;51.450;9.254;2024-03-02T04:53:06;3.90;99.90
10905;DHT22;5505;51.450;9.254;2024-03-02T04:55:56;3.90;99.90
10905;DHT22;5505;51.450;9.254;2024-03-02T04:59:06;3.90;99.90
10905;DHT22;5505;51.450;9.254;2024-03-02T05:01:52;3.80;99.90
10905;DHT22;5505;51.450;9.254;2024-03-02T05:04:39;4.00;99.90
10905;DHT22;5505;51.450;9.254;2024-03-02T05:07:27;3.80;99.90
10905;DHT22;5505;51.450;9.254;2024-03-02T05:10:15;3.80;99.90
10905;DHT22;5505;51.450;9.254;2024-03-02T05:13:02;3.80;99.90
10905;DHT22;5505;51.450;9.254;2024-03-02T05:15:48;3.80;99.90
10905;DHT22;5505;51.450;9.254;2024-03-02T05:18:37;3.90;99.90
10905;DHT22;5505;51.450;9.254;2024-03-02T05:21:24;3.80;99.90
10905;DHT22;5505;51.450;9.254;2024-03-02T05:24:11;3.80;99.90
10905;DHT22;5505;51.450;9.254;2024-03-02T05:26:59;3.80;99.90
10905;DHT22;5505;51.450;9.254;2024-03-02T05:29:46;4.10;99.90
10905;DHT22;5505;51.450;9.254;2024-03-02T05:32:33;3.70;99.90
10905;DHT22;5505;51.450;9.254;2024-03-02T05:35:20;3.70;99.90
10905;DHT22;5505;51.450;9.254;2024-03-02T05:38:07;3.70;99.90
10905;DHT22;5505;51.450;9.254;2024-03-02T05:40:54;3.70;99.90
10905;DHT22;5505;51.450;9.254;2024-03-02T05:43:42;3.60;99.90
10905;DHT22;5505;51.450;9.254;2024-03-02T05:46:29;4.40;99.90
10905;DHT22;5505;51.450;9.254;2024-03-02T05:49:17;3.50;99.90
10905;DHT22;5505;51.450;9.254;2024-03-02T05:52:04;3.50;99.90
10905;DHT22;5505;51.450;9.254;2024-03-02T05:54:52;3.50;99.90
10905;DHT22;5505;51.450;9.254;2024-03-02T05:57:39;3.40;99.90
10905;DHT22;5505;51.450;9.254;2024-03-02T06:00:42;3.40;99.90
10905;DHT22;5505;51.450;9.254;2024-03-02T06:03:29;3.40;99.90
10905;DHT22;5505;51.450;9.254;2024-03-02T06:06:15;3.40;99.90
10905;DHT22;5505;51.450;9.254;2024-03-02T06:09:03;3.40;99.90
10905;DHT22;5505;51.450;9.254;2024-03-02T06:11:52;3.40;99.90
10905;DHT22;5505;51.450;9.254;2024-03-02T06:14:39;3.50;99.90
10905;DHT22;5505;51.450;9.254;2024-03-02T06:17:27;3.40;99.90
10905;DHT22;5505;51.450;9.254;2024-03-02T06:20:14;3.40;99.90
10905;DHT22;5505;51.450;9.254;2024-03-02T06:23:01;4.50;99.90
10905;DHT22;5505;51.450;9.254;2024-03-02T06:25:48;3.40;99.90
10905;DHT22;5505;51.450;9.254;2024-03-02T06:28:35;3.40;99.90
10905;DHT22;5505;51.450;9.254;2024-03-02T06:31:21;3.40;99.90
10905;DHT22;5505;51.450;9.254;2024-03-02T06:34:10;3.50;99.90
10905;DHT22;5505;51.450;9.254;2024-03-02T06:36:56;3.40;99.90
10905;DHT22;5505;51.450;9.254;2024-03-02T06:39:43;3.40;99.90
10905;DHT22;5505;51.450;9.254;2024-03-02T06:42:30;3.40;99.90
10905;DHT22;5505;51.450;9.254;2024-03-02T06:45:18;3.40;99.90
10905;DHT22;5505;51.450;9.254;2024-03-02T06:48:06;3.40;99.90
10905;DHT22;5505;51.450;9.254;2024-03-02T06:50:54;3.50;99.90
10905;DHT22;5505;51.450;9.254;2024-03-02T06:53:41;3.40;99.90
10905;DHT22;5505;51.450;9.254;2024-03-02T06:56:28;3.40;99.90
10905;DHT22;5505;51.450;9.254;2024-03-02T06:59:16;3.40;99.90
10905;DHT22;5505;51.450;9.254;2024-03-02T07:02:03;3.40;99.90
10905;DHT22;5505;51.450;9.254;2024-03-02T07:04:50;3.40;99.90
10905;DHT22;5505;51.450;9.254;2024-03-02T07:07:39;3.50;99.90
10905;DHT22;5505;51.450;9.254;2024-03-02T07:10:25;3.60;99.90
10905;DHT22;5505;51.450;9.254;2024-03-02T07:13:12;3.70;99.90
10905;DHT22;5505;51.450;9.254;2024-03-02T07:15:59;3.80;99.90
10905;DHT22;5505;51.450;9.254;2024-03-02T07:19:00;3.90;99.90
10905;DHT22;5505;51.450;9.254;2024-03-02T07:21:47;4.20;99.90
10905;DHT22;5505;51.450;9.254;2024-03-02T07:24:40;4.20;99.90
10905;DHT22;5505;51.450;9.254;2024-03-02T07:27:28;4.30;99.90
10905;DHT22;5505;51.450;9.254;2024-03-02T07:30:15;4.50;99.90
10905;DHT22;5505;51.450;9.254;2024-03-02T07:33:03;4.50;99.90
10905;DHT22;5505;51.450;9.254;2024-03-02T07:35:50;4.70;99.90
10905;DHT22;5505;51.450;9.254;2024-03-02T07:38:36;4.70;99.90
10905;DHT22;5505;51.450;9.254;2024-03-02T07:41:25;4.80;99.90
10905;DHT22;5505;51.450;9.254;2024-03-02T07:44:12;4.90;99.90
10905;DHT22;5505;51.450;9.254;2024-03-02T07:47:00;4.80;99.90
10905;DHT22;5505;51.450;9.254;2024-03-02T07:49:47;6.60;99.90
10905;DHT22;5505;51.450;9.254;2024-03-02T07:52:33;4.90;99.90
10905;DHT22;5505;51.450;9.254;2024-03-02T07:55:20;4.90;99.90
10905;DHT22;5505;51.450;9.254;2024-03-02T07:58:10;4.90;99.90
10905;DHT22;5505;51.450;9.254;2024-03-02T08:00:58;5.00;99.90
10905;DHT22;5505;51.450;9.254;2024-03-02T08:03:46;5.10;99.90
10905;DHT22;5505;51.450;9.254;2024-03-02T08:06:35;5.30;99.90
10905;DHT22;5505;51.450;9.254;2024-03-02T08:09:22;5.20;99.90
10905;DHT22;5505;51.450;9.254;2024-03-02T08:12:09;5.30;99.90
10905;DHT22;5505;51.450;9.254;2024-03-02T08:14:57;5.40;99.90
10905;DHT22;5505;51.450;9.254;2024-03-02T08:17:44;5.50;99.90
10905;DHT22;5505;51.450;9.254;2024-03-02T08:20:34;5.70;99.90
10905;DHT22;5505;51.450;9.254;2024-03-02T08:23:21;5.80;99.90
10905;DHT22;5505;51.450;9.254;2024-03-02T08:26:07;6.00;99.90
10905;DHT22;5505;51.450;9.254;2024-03-02T08:28:54;5.80;99.90
10905;DHT22;5505;51.450;9.254;2024-03-02T08:31:42;6.00;99.90
10905;DHT22;5505;51.450;9.254;2024-03-02T08:34:29;6.90;99.90
10905;DHT22;5505;51.450;9.254;2024-03-02T08:37:16;6.20;99.90
10905;DHT22;5505;51.450;9.254;2024-03-02T08:40:04;6.30;99.90
10905;DHT22;5505;51.450;9.254;2024-03-02T08:42:52;6.40;99.90
10905;DHT22;5505;51.450;9.254;2024-03-02T08:45:39;6.50;99.90
10905;DHT22;5505;51.450;9.254;2024-03-02T08:48:28;6.60;99.90
10905;DHT22;5505;51.450;9.254;2024-03-02T08:51:15;6.70;99.90
10905;DHT22;5505;51.450;9.254;2024-03-02T08:54:02;6.80;99.90
10905;DHT22;5505;51.450;9.254;2024-03-02T08:56:49;6.90;99.90
10905;DHT22;5505;51.450;9.254;2024-03-02T08:59:36;7.00;99.90
10905;DHT22;5505;51.450;9.254;2024-03-02T09:02:23;7.10;99.90
10905;DHT22;5505;51.450;9.254;2024-03-02T09:05:12;7.10;99.90
10905;DHT22;5505;51.450;9.254;2024-03-02T09:07:59;7.20;99.90
10905;DHT22;5505;51.450;9.254;2024-03-02T09:10:46;7.30;99.90
10905;DHT22;5505;51.450;9.254;2024-03-02T09:13:33;7.30;99.90
10905;DHT22;5505;51.450;9.254;2024-03-02T09:16:19;7.30;99.90
10905;DHT22;5505;51.450;9.254;2024-03-02T09:19:06;8.20;99.90
10905;DHT22;5505;51.450;9.254;2024-03-02T09:21:54;7.50;99.90
10905;DHT22;5505;51.450;9.254;2024-03-02T09:24:41;7.60;99.90
10905;DHT22;5505;51.450;9.254;2024-03-02T09:27:28;7.70;99.90
10905;DHT22;5505;51.450;9.254;2024-03-02T09:30:15;7.90;99.90
10905;DHT22;5505;51.450;9.254;2024-03-02T09:33:02;8.10;99.90
10905;DHT22;5505;51.450;9.254;2024-03-02T09:35:48;8.30;99.90
10905;DHT22;5505;51.450;9.254;2024-03-02T09:38:37;8.60;99.90
10905;DHT22;5505;51.450;9.254;2024-03-02T09:41:24;8.80;99.90
10905;DHT22;5505;51.450;9.254;2024-03-02T09:44:11;9.00;99.90
10905;DHT22;5505;51.450;9.254;2024-03-02T09:46:58;9.30;99.90
10905;DHT22;5505;51.450;9.254;2024-03-02T09:49:45;9.40;99.90
10905;DHT22;5505;51.450;9.254;2024-03-02T09:52:32;9.60;99.90
10905;DHT22;5505;51.450;9.254;2024-03-02T09:55:20;9.90;99.90
10905;DHT22;5505;51.450;9.254;2024-03-02T09:58:07;10.00;99.90
10905;DHT22;5505;51.450;9.254;2024-03-02T10:00:54;10.10;99.90
10905;DHT22;5505;51.450;9.254;2024-03-02T10:03:41;10.30;99.90
10905;DHT22;5505;51.450;9.254;2024-03-02T10:06:31;10.40;99.90
10905;DHT22;5505;51.450;9.254;2024-03-02T10:09:27;10.60;99.90
10905;DHT22;5505;51.450;9.254;2024-03-02T10:12:17;13.00;99.90
10905;DHT22;5505;51.450;9.254;2024-03-02T10:15:04;10.90;99.90
10905;DHT22;5505;51.450;9.254;2024-03-02T10:17:53;10.90;99.90
10905;DHT22;5505;51.450;9.254;2024-03-02T10:20:40;10.90;99.90
10905;DHT22;5505;51.450;9.254;2024-03-02T10:23:27;10.90;99.90
10905;DHT22;5505;51.450;9.254;2024-03-02T10:26:17;11.00;99.90
10905;DHT22;5505;51.450;9.254;2024-03-02T10:29:05;10.60;99.90
10905;DHT22;5505;51.450;9.254;2024-03-02T10:31:54;10.40;99.90
10905;DHT22;5505;51.450;9.254;2024-03-02T10:34:43;10.30;99.90
10905;DHT22;5505;51.450;9.254;2024-03-02T10:37:30;10.30;99.90
10905;DHT22;5505;51.450;9.254;2024-03-02T10:40:18;10.40;97.40
10905;DHT22;5505;51.450;9.254;2024-03-02T10:43:07;10.60;99.90
10905;DHT22;5505;51.450;9.254;2024-03-02T10:45:57;10.70;99.90
10905;DHT22;5505;51.450;9.254;2024-03-02T10:48:46;10.80;51.00
10905;DHT22;5505;51.450;9.254;2024-03-02T10:51:33;11.00;95.60
10905;DHT22;5505;51.450;9.254;2024-03-02T10:54:21;11.20;96.40
10905;DHT22;5505;51.450;9.254;2024-03-02T10:57:14;11.30;43.30
10905;DHT22;5505;51.450;9.254;2024-03-02T11:00:04;11.40;20.50
10905;DHT22;5505;51.450;9.254;2024-03-02T11:02:56;11.40;1.00
10905;DHT22;5505;51.450;9.254;2024-03-02T11:05:44;11.50;1.00
10905;DHT22;5505;51.450;9.254;2024-03-02T11:08:34;11.60;1.00
10905;DHT22;5505;51.450;9.254;2024-03-02T11:11:29;11.80;1.00
10905;DHT22;5505;51.450;9.254;2024-03-02T11:14:17;11.80;1.00
10905;DHT22;5505;51.450;9.254;2024-03-02T11:17:08;12.00;1.00
10905;DHT22;5505;51.450;9.254;2024-03-02T11:19:57;12.00;1.00
10905;DHT22;5505;51.450;9.254;2024-03-02T11:22:44;12.10;1.00
10905;DHT22;5505;51.450;9.254;2024-03-02T11:25:31;12.20;1.00
10905;DHT22;5505;51.450;9.254;2024-03-02T11:28:34;12.20;99.90
10905;DHT22;5505;51.450;9.254;2024-03-02T11:31:22;12.20;99.90
10905;DHT22;5505;51.450;9.254;2024-03-02T11:34:18;12.20;99.90
10905;DHT22;5505;51.450;9.254;2024-03-02T11:37:08;12.00;99.90
10905;DHT22;5505;51.450;9.254;2024-03-02T11:39:55;11.90;99.90
10905;DHT22;5505;51.450;9.254;2024-03-02T11:42:42;11.80;1.00
10905;DHT22;5505;51.450;9.254;2024-03-02T11:45:30;11.80;1.00
10905;DHT22;5505;51.450;9.254;2024-03-02T11:48:20;11.90;1.00
10905;DHT22;5505;51.450;9.254;2024-03-02T11:51:06;11.90;1.00
10905;DHT22;5505;51.450;9.254;2024-03-02T11:53:56;12.00;1.00
10905;DHT22;5505;51.450;9.254;2024-03-02T11:56:43;12.00;1.00
10905;DHT22;5505;51.450;9.254;2024-03-02T11:59:30;12.00;1.00
10905;DHT22;5505;51.450;9.254;2024-03-02T12:02:19;11.70;1.00
10905;DHT22;5505;51.450;9.254;2024-03-02T12:05:08;11.70;1.00
10905;DHT22;5505;51.450;9.254;2024-03-02T12:07:56;11.60;1.00
10905;DHT22;5505;51.450;9.254;2024-03-02T12:10:56;11.80;1.00
10905;DHT22;5505;51.450;9.254;2024-03-02T12:13:51;11.80;1.00
10905;DHT22;5505;51.450;9.254;2024-03-02T12:16:43;12.80;1.00
10905;DHT22;5505;51.450;9.254;2024-03-02T12:19:31;11.90;1.00
10905;DHT22;5505;51.450;9.254;2024-03-02T12:22:18;11.90;1.00
10905;DHT22;5505;51.450;9.254;2024-03-02T12:25:05;11.80;1.00
10905;DHT22;5505;51.450;9.254;2024-03-02T12:27:55;11.70;1.00
10905;DHT22;5505;51.450;9.254;2024-03-02T12:30:42;11.70;1.00
10905;DHT22;5505;51.450;9.254;2024-03-02T12:33:29;11.60;13.80
10905;DHT22;5505;51.450;9.254;2024-03-02T12:36:16;11.60;1.00
10905;DHT22;5505;51.450;9.254;2024-03-02T12:39:03;11.60;1.00
10905;DHT22;5505;51.450;9.254;2024-03-02T12:41:50;11.70;99.90
10905;DHT22;5505;51.450;9.254;2024-03-02T12:44:41;11.70;99.80
10905;DHT22;5505;51.450;9.254;2024-03-02T12:47:28;11.90;1.00
10905;DHT22;5505;51.450;9.254;2024-03-02T12:50:15;12.20;1.00
10905;DHT22;5505;51.450;9.254;2024-03-02T12:53:02;12.30;31.80
10905;DHT22;5505;51.450;9.254;2024-03-02T12:55:48;12.30;99.90
10905;DHT22;5505;51.450;9.254;2024-03-02T12:58:39;12.30;99.90
10905;DHT22;5505;51.450;9.254;2024-03-02T13:01:28;12.40;99.90
10905;DHT22;5505;51.450;9.254;2024-03-02T13:04:14;12.50;99.90
10905;DHT22;5505;51.450;9.254;2024-03-02T13:07:01;12.30;99.90
10905;DHT22;5505;51.450;9.254;2024-03-02T13:09:49;12.30;99.90
10905;DHT22;5505;51.450;9.254;2024-03-02T13:12:36;12.40;99.90
10905;DHT22;5505;51.450;9.254;2024-03-02T13:15:23;12.50;99.90
10905;DHT22;5505;51.450;9.254;2024-03-02T13:18:11;12.60;99.90
10905;DHT22;5505;51.450;9.254;2024-03-02T13:20:58;12.50;99.90
10905;DHT22;5505;51.450;9.254;2024-03-02T13:23:45;12.30;99.90
10905;DHT22;5505;51.450;9.254;2024-03-02T13:26:32;12.20;99.90
10905;DHT22;5505;51.450;9.254;2024-03-02T13:29:18;12.20;99.90
10905;DHT22;5505;51.450;9.254;2024-03-02T13:32:06;12.70;99.90
10905;DHT22;5505;51.450;9.254;2024-03-02T13:34:56;12.20;99.90
10905;DHT22;5505;51.450;9.254;2024-03-02T13:37:43;12.20;99.90
10905;DHT22;5505;51.450;9.254;2024-03-02T13:40:30;12.20;99.90
10905;DHT22;5505;51.450;9.254;2024-03-02T13:43:20;12.20;99.90
10905;DHT22;5505;51.450;9.254;2024-03-02T13:46:09;12.20;99.90
10905;DHT22;5505;51.450;9.254;2024-03-02T13:48:56;12.20;99.90
10905;DHT22;5505;51.450;9.254;2024-03-02T13:51:45;12.30;99.90
10905;DHT22;5505;51.450;9.254;2024-03-02T13:54:32;12.30;99.90
10905;DHT22;5505;51.450;9.254;2024-03-02T13:57:19;12.40;99.90
10905;DHT22;5505;51.450;9.254;2024-03-02T14:00:07;12.50;99.90
10905;DHT22;5505;51.450;9.254;2024-03-02T14:02:59;12.50;99.90
10905;DHT22;5505;51.450;9.254;2024-03-02T14:05:46;12.60;99.90
10905;DHT22;5505;51.450;9.254;2024-03-02T14:08:36;13.80;99.90
10905;DHT22;5505;51.450;9.254;2024-03-02T14:11:23;12.60;99.90
10905;DHT22;5505;51.450;9.254;2024-03-02T14:14:10;12.70;99.90
10905;DHT22;5505;51.450;9.254;2024-03-02T14:16:57;12.60;99.90
10905;DHT22;5505;51.450;9.254;2024-03-02T14:19:45;12.60;99.90
10905;DHT22;5505;51.450;9.254;2024-03-02T14:22:33;12.60;99.90
10905;DHT22;5505;51.450;9.254;2024-03-02T14:25:24;12.60;99.90
10905;DHT22;5505;51.450;9.254;2024-03-02T14:28:11;12.60;99.90
10905;DHT22;5505;51.450;9.254;2024-03-02T14:30:58;12.50;99.90
10905;DHT22;5505;51.450;9.254;2024-03-02T14:33:46;12.50;99.90
10905;DHT22;5505;51.450;9.254;2024-03-02T14:36:33;12.40;99.90
10905;DHT22;5505;51.450;9.254;2024-03-02T14:39:20;12.40;99.90
10905;DHT22;5505;51.450;9.254;2024-03-02T14:42:08;12.30;99.90
10905;DHT22;5505;51.450;9.254;2024-03-02T14:44:55;12.30;99.90
10905;DHT22;5505;51.450;9.254;2024-03-02T14:47:42;12.30;99.90
10905;DHT22;5505;51.450;9.254;2024-03-02T14:50:29;12.30;99.90
10905;DHT22;5505;51.450;9.254;2024-03-02T14:53:16;12.30;99.90
10905;DHT22;5505;51.450;9.254;2024-03-02T14:56:04;12.30;99.90
10905;DHT22;5505;51.450;9.254;2024-03-02T14:58:52;12.30;99.90
10905;DHT22;5505;51.450;9.254;2024-03-02T15:01:39;12.30;99.90
10905;DHT22;5505;51.450;9.254;2024-03-02T15:04:26;12.30;99.90
10905;DHT22;5505;51.450;9.254;2024-03-02T15:07:13;12.30;99.90
10905;DHT22;5505;51.450;9.254;2024-03-02T15:10:00;12.30;99.90
10905;DHT22;5505;51.450;9.254;2024-03-02T15:12:47;12.20;99.90
10905;DHT22;5505;51.450;9.254;2024-03-02T15:15:35;12.30;99.90
10905;DHT22;5505;51.450;9.254;2024-03-02T15:18:22;12.20;99.90
10905;DHT22;5505;51.450;9.254;2024-03-02T15:21:09;12.20;99.90
10905;DHT22;5505;51.450;9.254;2024-03-02T15:23:56;12.10;99.90
10905;DHT22;5505;51.450;9.254;2024-03-02T15:26:43;12.10;99.90
10905;DHT22;5505;51.450;9.254;2024-03-02T15:29:32;12.10;99.90
10905;DHT22;5505;51.450;9.254;2024-03-02T15:32:20;12.00;99.90
10905;DHT22;5505;51.450;9.254;2024-03-02T15:35:07;12.00;99.90
10905;DHT22;5505;51.450;9.254;2024-03-02T15:37:55;12.00;99.90
10905;DHT22;5505;51.450;9.254;2024-03-02T15:40:42;12.00;99.90
10905;DHT22;5505;51.450;9.254;2024-03-02T15:43:29;12.00;99.90
10905;DHT22;5505;51.450;9.254;2024-03-02T15:46:16;12.00;99.90
10905;DHT22;5505;51.450;9.254;2024-03-02T15:49:04;12.90;99.90
10905;DHT22;5505;51.450;9.254;2024-03-02T15:51:53;12.00;99.90
10905;DHT22;5505;51.450;9.254;2024-03-02T15:54:40;12.00;99.90
10905;DHT22;5505;51.450;9.254;2024-03-02T15:57:29;11.90;99.90
10905;DHT22;5505;51.450;9.254;2024-03-02T16:00:16;11.90;99.90
10905;DHT22;5505;51.450;9.254;2024-03-02T16:03:03;11.90;99.90
10905;DHT22;5505;51.450;9.254;2024-03-02T16:05:51;11.90;99.90
10905;DHT22;5505;51.450;9.254;2024-03-02T16:08:38;11.80;99.90
10905;DHT22;5505;51.450;9.254;2024-03-02T16:11:25;11.70;99.90
10905;DHT22;5505;51.450;9.254;2024-03-02T16:14:13;11.80;99.90
10905;DHT22;5505;51.450;9.254;2024-03-02T16:17:01;11.70;99.90
10905;DHT22;5505;51.450;9.254;2024-03-02T16:19:48;11.50;99.90
10905;DHT22;5505;51.450;9.254;2024-03-02T16:22:36;11.40;99.90
10905;DHT22;5505;51.450;9.254;2024-03-02T16:25:23;11.40;99.90
10905;DHT22;5505;51.450;9.254;2024-03-02T16:28:11;11.40;99.90
10905;DHT22;5505;51.450;9.254;2024-03-02T16:30:57;11.30;99.90
10905;DHT22;5505;51.450;9.254;2024-03-02T16:33:44;11.20;99.90
10905;DHT22;5505;51.450;9.254;2024-03-02T16:36:31;11.20;48.80
10905;DHT22;5505;51.450;9.254;2024-03-02T16:39:21;11.10;16.30
10905;DHT22;5505;51.450;9.254;2024-03-02T16:42:08;11.00;19.40
10905;DHT22;5505;51.450;9.254;2024-03-02T16:44:55;11.10;79.00
10905;DHT22;5505;51.450;9.254;2024-03-02T16:47:42;11.10;1.00
10905;DHT22;5505;51.450;9.254;2024-03-02T16:50:29;11.00;1.00
10905;DHT22;5505;51.450;9.254;2024-03-02T16:53:16;11.00;1.00
10905;DHT22;5505;51.450;9.254;2024-03-02T16:56:05;10.90;1.00
10905;DHT22;5505;51.450;9.254;2024-03-02T16:58:51;10.70;1.00
10905;DHT22;5505;51.450;9.254;2024-03-02T17:01:38;10.70;1.00
10905;DHT22;5505;51.450;9.254;2024-03-02T17:04:25;10.80;1.00
10905;DHT22;5505;51.450;9.254;2024-03-02T17:07:12;11.50;1.00
10905;DHT22;5505;51.450;9.254;2024-03-02T17:09:59;10.70;1.00
10905;DHT22;5505;51.450;9.254;2024-03-02T17:12:47;10.70;1.00
10905;DHT22;5505;51.450;9.254;2024-03-02T17:15:34;10.60;1.00
10905;DHT22;5505;51.450;9.254;2024-03-02T17:18:21;10.40;1.00
10905;DHT22;5505;51.450;9.254;2024-03-02T17:21:08;10.40;1.00
10905;DHT22;5505;51.450;9.254;2024-03-02T17:23:54;10.60;1.00
10905;DHT22;5505;51.450;9.254;2024-03-02T17:26:41;10.60;1.00
10905;DHT22;5505;51.450;9.254;2024-03-02T17:29:29;10.10;1.00
10905;DHT22;5505;51.450;9.254;2024-03-02T17:32:19;11.10;1.00
10905;DHT22;5505;51.450;9.254;2024-03-02T17:35:06;9.90;1.00
10905;DHT22;5505;51.450;9.254;2024-03-02T17:37:53;9.90;1.00
10905;DHT22;5505;51.450;9.254;2024-03-02T17:40:40;9.90;1.00
10905;DHT22;5505;51.450;9.254;2024-03-02T17:43:27;9.70;1.00
10905;DHT22;5505;51.450;9.254;2024-03-02T17:46:15;9.80;30.70
10905;DHT22;5505;51.450;9.254;2024-03-02T17:49:02;9.70;52.80
10905;DHT22;5505;51.450;9.254;2024-03-02T17:51:48;9.70;58.30
10905;DHT22;5505;51.450;9.254;2024-03-02T17:54:35;9.50;99.90
10905;DHT22;5505;51.450;9.254;2024-03-02T17:57:22;9.40;99.90
10905;DHT22;5505;51.450;9.254;2024-03-02T18:00:10;9.20;99.90
10905;DHT22;5505;51.450;9.254;2024-03-02T18:03:01;9.10;99.90
10905;DHT22;5505;51.450;9.254;2024-03-02T18:05:47;9.00;99.90
10905;DHT22;5505;51.450;9.254;2024-03-02T18:08:34;8.90;99.90
10905;DHT22;5505;51.450;9.254;2024-03-02T18:11:22;8.80;99.90